Aérodrome :







RETROUVEZ-NOUS SUR...

 
LOGIN :

S'inscrire | Disclaimer

   EN    FR    IT 

 









Légende :    VFR   VFR Marginal   IFR   IFR Intensif   IFR Très Intensif
Visi : 
Plafond : 
>= 8 km
>= 3000ft
5 à 8 km
1000 à 3000 ft
1500m à 5 km
500 à 1000 ft
800 à 1500m
200 à 500 ft
< 800m
< 200 ft
Symboles :   Orages  Brouillard  Fortes neiges  Fortes précipitations  Vent > 20 kt






- Altitude de l'aérodrome : 112 ft
- Code IATA : UAK


BGBW - Narsarsuak

DERNIER METAR :
  • 200950Z AUTO 24004KT 190V290 9999NDV BKN120/// M12/M20 Q0979

METARs EXPIRÉS :
  • 200850Z AUTO 06002KT 9999NDV FEW120/// BKN140/// M13/M23 Q0981
  • 200750Z AUTO 04003KT 9999NDV BKN130/// BKN150/// M14/M23 Q0982

TAF TAF BGBW
Valide du 20 à 09h jusqu'au 20 à 18h UTC


201004Z 2009/2018 06012KT 9999 FEW070 BKN120
TEMPO 2014/2017 BKN060
TEMPO 2017/2018 06020G32KT BKN060



MET'MAP, la Météo Aéronautique d'un coup d'oeil ! - Copyright ORBIFLY Décembre 2007 - Disclaimer

ORBIFLY MET'MAP TEAM :

Programmation & Développement : Alexandra Zaïnal
Sur une idée originale de : Baudouin d'Aumeries
Assistance à la programmation : Marc-Olivier Méhu
Soutien technique & logistique : Manuel Goepfert

Contact : metmap@orbifly.com




SOURCES & CREDITS :

   NOAA